sensor_id;sensor_type;location;lat;lon;timestamp;P1;P2;P0
61804;PMS7003;47725;47.912;7.356;2024-01-10T00:00:05;75.03;54.83;
61804;PMS7003;47725;47.912;7.356;2024-01-10T00:04:04;75.03;54.83;
61804;PMS7003;47725;47.912;7.356;2024-01-10T00:08:05;62.54;49.07;
61804;PMS7003;47725;47.912;7.356;2024-01-10T00:12:05;62.54;49.07;
61804;PMS7003;47725;47.912;7.356;2024-01-10T00:16:05;62.54;49.07;
61804;PMS7003;47725;47.912;7.356;2024-01-10T00:20:05;64.47;51.00;
61804;PMS7003;47725;47.912;7.356;2024-01-10T00:24:05;64.47;51.00;
61804;PMS7003;47725;47.912;7.356;2024-01-10T00:28:05;70.26;49.08;
61804;PMS7003;47725;47.912;7.356;2024-01-10T00:32:05;70.26;49.08;
61804;PMS7003;47725;47.912;7.356;2024-01-10T00:36:05;70.26;49.08;
61804;PMS7003;47725;47.912;7.356;2024-01-10T00:40:05;58.59;46.11;
61804;PMS7003;47725;47.912;7.356;2024-01-10T00:44:04;58.59;46.11;
61804;PMS7003;47725;47.912;7.356;2024-01-10T00:48:08;62.40;48.00;
61804;PMS7003;47725;47.912;7.356;2024-01-10T00:52:05;62.40;48.00;
61804;PMS7003;47725;47.912;7.356;2024-01-10T00:56:05;62.40;48.00;
61804;PMS7003;47725;47.912;7.356;2024-01-10T01:00:08;63.54;50.06;
61804;PMS7003;47725;47.912;7.356;2024-01-10T01:04:04;63.54;50.06;
61804;PMS7003;47725;47.912;7.356;2024-01-10T01:08:05;66.42;49.09;
61804;PMS7003;47725;47.912;7.356;2024-01-10T01:12:05;66.42;49.09;
61804;PMS7003;47725;47.912;7.356;2024-01-10T01:16:05;66.42;49.09;
61804;PMS7003;47725;47.912;7.356;2024-01-10T01:20:05;73.13;51.96;
61804;PMS7003;47725;47.912;7.356;2024-01-10T01:24:05;73.13;51.96;
61804;PMS7003;47725;47.912;7.356;2024-01-10T01:28:05;70.26;51.01;
61804;PMS7003;47725;47.912;7.356;2024-01-10T01:32:05;70.26;51.01;
61804;PMS7003;47725;47.912;7.356;2024-01-10T01:36:05;70.26;51.01;
61804;PMS7003;47725;47.912;7.356;2024-01-10T01:40:05;67.29;51.91;
61804;PMS7003;47725;47.912;7.356;2024-01-10T01:44:04;67.29;51.91;
61804;PMS7003;47725;47.912;7.356;2024-01-10T01:48:05;70.24;52.92;
61804;PMS7003;47725;47.912;7.356;2024-01-10T01:52:05;70.24;52.92;
61804;PMS7003;47725;47.912;7.356;2024-01-10T01:56:07;70.24;52.92;
61804;PMS7003;47725;47.912;7.356;2024-01-10T02:00:05;68.25;53.83;
61804;PMS7003;47725;47.912;7.356;2024-01-10T02:04:04;68.25;53.83;
61804;PMS7003;47725;47.912;7.356;2024-01-10T02:08:05;62.44;49.95;
61804;PMS7003;47725;47.912;7.356;2024-01-10T02:12:05;62.44;49.95;
61804;PMS7003;47725;47.912;7.356;2024-01-10T02:16:05;62.44;49.95;
61804;PMS7003;47725;47.912;7.356;2024-01-10T02:20:11;64.41;49.99;
61804;PMS7003;47725;47.912;7.356;2024-01-10T02:24:05;64.41;49.99;
61804;PMS7003;47725;47.912;7.356;2024-01-10T02:28:04;64.31;49.91;
61804;PMS7003;47725;47.912;7.356;2024-01-10T02:32:05;64.31;49.91;
61804;PMS7003;47725;47.912;7.356;2024-01-10T02:36:04;64.31;49.91;
61804;PMS7003;47725;47.912;7.356;2024-01-10T02:40:05;71.05;52.81;
61804;PMS7003;47725;47.912;7.356;2024-01-10T02:44:04;71.05;52.81;
61804;PMS7003;47725;47.912;7.356;2024-01-10T02:48:05;59.54;48.02;
61804;PMS7003;47725;47.912;7.356;2024-01-10T02:52:05;59.54;48.02;
61804;PMS7003;47725;47.912;7.356;2024-01-10T02:56:05;59.54;48.02;
61804;PMS7003;47725;47.912;7.356;2024-01-10T03:00:05;60.49;48.01;
61804;PMS7003;47725;47.912;7.356;2024-01-10T03:04:04;60.49;48.01;
61804;PMS7003;47725;47.912;7.356;2024-01-10T03:08:05;60.52;48.99;
61804;PMS7003;47725;47.912;7.356;2024-01-10T03:12:04;60.52;48.99;
61804;PMS7003;47725;47.912;7.356;2024-01-10T03:16:05;60.52;48.99;
61804;PMS7003;47725;47.912;7.356;2024-01-10T03:20:05;59.52;48.00;
61804;PMS7003;47725;47.912;7.356;2024-01-10T03:24:05;59.52;48.00;
61804;PMS7003;47725;47.912;7.356;2024-01-10T03:28:04;54.74;44.18;
61804;PMS7003;47725;47.912;7.356;2024-01-10T03:32:05;54.74;44.18;
61804;PMS7003;47725;47.912;7.356;2024-01-10T03:36:05;54.74;44.18;
61804;PMS7003;47725;47.912;7.356;2024-01-10T03:40:04;64.38;49.97;
61804;PMS7003;47725;47.912;7.356;2024-01-10T03:44:04;64.38;49.97;
61804;PMS7003;47725;47.912;7.356;2024-01-10T03:48:05;68.21;52.84;
61804;PMS7003;47725;47.912;7.356;2024-01-10T03:52:04;68.21;52.84;
61804;PMS7003;47725;47.912;7.356;2024-01-10T03:56:04;68.21;52.84;
61804;PMS7003;47725;47.912;7.356;2024-01-10T04:00:05;58.53;44.13;
61804;PMS7003;47725;47.912;7.356;2024-01-10T04:04:04;58.53;44.13;
61804;PMS7003;47725;47.912;7.356;2024-01-10T04:08:05;70.09;52.81;
61804;PMS7003;47725;47.912;7.356;2024-01-10T04:12:04;70.09;52.81;
61804;PMS7003;47725;47.912;7.356;2024-01-10T04:16:05;70.09;52.81;
61804;PMS7003;47725;47.912;7.356;2024-01-10T04:20:05;61.45;48.97;
61804;PMS7003;47725;47.912;7.356;2024-01-10T04:24:05;61.45;48.97;
61804;PMS7003;47725;47.912;7.356;2024-01-10T04:28:04;65.30;51.86;
61804;PMS7003;47725;47.912;7.356;2024-01-10T04:32:04;65.30;51.86;
61804;PMS7003;47725;47.912;7.356;2024-01-10T04:36:04;65.30;51.86;
61804;PMS7003;47725;47.912;7.356;2024-01-10T04:40:04;72.00;53.76;
61804;PMS7003;47725;47.912;7.356;2024-01-10T04:44:04;72.00;53.76;
61804;PMS7003;47725;47.912;7.356;2024-01-10T04:48:04;80.68;59.55;
61804;PMS7003;47725;47.912;7.356;2024-01-10T04:52:05;80.68;59.55;
61804;PMS7003;47725;47.912;7.356;2024-01-10T04:56:04;80.68;59.55;
61804;PMS7003;47725;47.912;7.356;2024-01-10T05:00:05;73.93;54.73;
61804;PMS7003;47725;47.912;7.356;2024-01-10T05:04:04;73.93;54.73;
61804;PMS7003;47725;47.912;7.356;2024-01-10T05:08:05;60.42;46.03;
61804;PMS7003;47725;47.912;7.356;2024-01-10T05:12:04;60.42;46.03;
61804;PMS7003;47725;47.912;7.356;2024-01-10T05:16:04;60.42;46.03;
61804;PMS7003;47725;47.912;7.356;2024-01-10T05:20:05;61.41;49.89;
61804;PMS7003;47725;47.912;7.356;2024-01-10T05:24:04;61.41;49.89;
61804;PMS7003;47725;47.912;7.356;2024-01-10T05:28:04;61.41;51.81;
61804;PMS7003;47725;47.912;7.356;2024-01-10T05:32:04;61.41;51.81;
61804;PMS7003;47725;47.912;7.356;2024-01-10T05:36:04;61.41;51.81;
61804;PMS7003;47725;47.912;7.356;2024-01-10T05:40:05;59.57;46.12;
61804;PMS7003;47725;47.912;7.356;2024-01-10T05:44:04;59.57;46.12;
61804;PMS7003;47725;47.912;7.356;2024-01-10T05:48:04;60.62;46.19;
61804;PMS7003;47725;47.912;7.356;2024-01-10T05:52:04;60.62;46.19;
61804;PMS7003;47725;47.912;7.356;2024-01-10T05:56:05;60.62;46.19;
61804;PMS7003;47725;47.912;7.356;2024-01-10T06:00:04;64.39;51.90;
61804;PMS7003;47725;47.912;7.356;2024-01-10T06:04:04;64.39;51.90;
61804;PMS7003;47725;47.912;7.356;2024-01-10T06:08:04;60.60;50.98;
61804;PMS7003;47725;47.912;7.356;2024-01-10T06:12:04;60.60;50.98;
61804;PMS7003;47725;47.912;7.356;2024-01-10T06:16:06;60.60;50.98;
61804;PMS7003;47725;47.912;7.356;2024-01-10T06:20:04;67.49;52.06;
61804;PMS7003;47725;47.912;7.356;2024-01-10T06:24:04;67.49;52.06;
61804;PMS7003;47725;47.912;7.356;2024-01-10T06:28:04;73.21;52.98;
61804;PMS7003;47725;47.912;7.356;2024-01-10T06:32:04;73.21;52.98;
61804;PMS7003;47725;47.912;7.356;2024-01-10T06:36:04;73.21;52.98;
61804;PMS7003;47725;47.912;7.356;2024-01-10T06:40:04;80.04;60.75;
61804;PMS7003;47725;47.912;7.356;2024-01-10T06:44:04;80.04;60.75;
61804;PMS7003;47725;47.912;7.356;2024-01-10T06:48:04;81.83;61.62;
61804;PMS7003;47725;47.912;7.356;2024-01-10T06:52:04;81.83;61.62;
61804;PMS7003;47725;47.912;7.356;2024-01-10T06:56:05;81.83;61.62;
61804;PMS7003;47725;47.912;7.356;2024-01-10T07:00:04;80.96;56.87;
61804;PMS7003;47725;47.912;7.356;2024-01-10T07:04:04;80.96;56.87;
61804;PMS7003;47725;47.912;7.356;2024-01-10T07:08:04;80.13;61.78;
61804;PMS7003;47725;47.912;7.356;2024-01-10T07:12:04;80.13;61.78;
61804;PMS7003;47725;47.912;7.356;2024-01-10T07:16:04;80.13;61.78;
61804;PMS7003;47725;47.912;7.356;2024-01-10T07:20:04;74.27;56.90;
61804;PMS7003;47725;47.912;7.356;2024-01-10T07:24:04;74.27;56.90;
61804;PMS7003;47725;47.912;7.356;2024-01-10T07:28:04;61.74;47.27;
61804;PMS7003;47725;47.912;7.356;2024-01-10T07:32:04;61.74;47.27;
61804;PMS7003;47725;47.912;7.356;2024-01-10T07:36:04;61.74;47.27;
61804;PMS7003;47725;47.912;7.356;2024-01-10T07:40:04;68.50;54.03;
61804;PMS7003;47725;47.912;7.356;2024-01-10T07:44:04;68.50;54.03;
61804;PMS7003;47725;47.912;7.356;2024-01-10T07:48:04;76.32;58.93;
61804;PMS7003;47725;47.912;7.356;2024-01-10T07:52:04;76.32;58.93;
61804;PMS7003;47725;47.912;7.356;2024-01-10T07:56:04;76.32;58.93;
61804;PMS7003;47725;47.912;7.356;2024-01-10T08:00:07;88.91;63.79;
61804;PMS7003;47725;47.912;7.356;2024-01-10T08:04:04;88.91;63.79;
61804;PMS7003;47725;47.912;7.356;2024-01-10T08:08:04;85.96;62.78;
61804;PMS7003;47725;47.912;7.356;2024-01-10T08:12:04;85.96;62.78;
61804;PMS7003;47725;47.912;7.356;2024-01-10T08:16:04;85.96;62.78;
61804;PMS7003;47725;47.912;7.356;2024-01-10T08:20:07;105.29;78.24;
61804;PMS7003;47725;47.912;7.356;2024-01-10T08:24:04;105.29;78.24;
61804;PMS7003;47725;47.912;7.356;2024-01-10T08:28:04;81.04;59.82;
61804;PMS7003;47725;47.912;7.356;2024-01-10T08:32:04;81.04;59.82;
61804;PMS7003;47725;47.912;7.356;2024-01-10T08:36:04;81.04;59.82;
61804;PMS7003;47725;47.912;7.356;2024-01-10T08:40:04;81.17;61.84;
61804;PMS7003;47725;47.912;7.356;2024-01-10T08:44:04;81.17;61.84;
61804;PMS7003;47725;47.912;7.356;2024-01-10T08:48:04;90.86;67.66;
61804;PMS7003;47725;47.912;7.356;2024-01-10T08:52:04;90.86;67.66;
61804;PMS7003;47725;47.912;7.356;2024-01-10T08:56:04;90.86;67.66;
61804;PMS7003;47725;47.912;7.356;2024-01-10T09:00:04;89.83;69.54;
61804;PMS7003;47725;47.912;7.356;2024-01-10T09:04:04;89.83;69.54;
61804;PMS7003;47725;47.912;7.356;2024-01-10T09:08:07;69.54;53.12;
61804;PMS7003;47725;47.912;7.356;2024-01-10T09:12:04;69.54;53.12;
61804;PMS7003;47725;47.912;7.356;2024-01-10T09:16:04;69.54;53.12;
61804;PMS7003;47725;47.912;7.356;2024-01-10T09:20:04;66.67;51.21;
61804;PMS7003;47725;47.912;7.356;2024-01-10T09:24:04;66.67;51.21;
61804;PMS7003;47725;47.912;7.356;2024-01-10T09:28:07;75.22;56.90;
61804;PMS7003;47725;47.912;7.356;2024-01-10T09:32:04;75.22;56.90;
61804;PMS7003;47725;47.912;7.356;2024-01-10T09:36:04;75.22;56.90;
61804;PMS7003;47725;47.912;7.356;2024-01-10T09:40:04;75.30;60.82;
61804;PMS7003;47725;47.912;7.356;2024-01-10T09:44:04;75.30;60.82;
61804;PMS7003;47725;47.912;7.356;2024-01-10T09:48:04;68.60;55.07;
61804;PMS7003;47725;47.912;7.356;2024-01-10T09:52:04;68.60;55.07;
61804;PMS7003;47725;47.912;7.356;2024-01-10T09:56:04;68.60;55.07;
61804;PMS7003;47725;47.912;7.356;2024-01-10T10:00:04;84.17;60.95;
61804;PMS7003;47725;47.912;7.356;2024-01-10T10:04:04;84.17;60.95;
61804;PMS7003;47725;47.912;7.356;2024-01-10T10:08:06;80.45;60.10;
61804;PMS7003;47725;47.912;7.356;2024-01-10T10:12:04;80.45;60.10;
61804;PMS7003;47725;47.912;7.356;2024-01-10T10:16:04;80.45;60.10;
61804;PMS7003;47725;47.912;7.356;2024-01-10T10:20:04;72.69;55.25;
61804;PMS7003;47725;47.912;7.356;2024-01-10T10:24:09;72.69;55.25;
61804;PMS7003;47725;47.912;7.356;2024-01-10T10:28:04;74.79;59.25;
61804;PMS7003;47725;47.912;7.356;2024-01-10T10:32:04;74.79;59.25;
61804;PMS7003;47725;47.912;7.356;2024-01-10T10:36:07;74.79;59.25;
61804;PMS7003;47725;47.912;7.356;2024-01-10T10:40:04;72.06;57.46;
61804;PMS7003;47725;47.912;7.356;2024-01-10T10:44:06;72.06;57.46;
61804;PMS7003;47725;47.912;7.356;2024-01-10T10:48:04;77.19;59.60;
61804;PMS7003;47725;47.912;7.356;2024-01-10T10:52:04;77.19;59.60;
61804;PMS7003;47725;47.912;7.356;2024-01-10T10:56:04;77.19;59.60;
61804;PMS7003;47725;47.912;7.356;2024-01-10T11:00:13;77.17;60.56;
61804;PMS7003;47725;47.912;7.356;2024-01-10T11:04:03;77.17;60.56;
61804;PMS7003;47725;47.912;7.356;2024-01-10T11:08:04;71.40;55.75;
61804;PMS7003;47725;47.912;7.356;2024-01-10T11:20:13;77.27;58.68;
61804;PMS7003;47725;47.912;7.356;2024-01-10T11:24:03;77.27;58.68;
61804;PMS7003;47725;47.912;7.356;2024-01-10T11:28:04;77.35;57.77;
61804;PMS7003;47725;47.912;7.356;2024-01-10T11:32:12;77.35;57.77;
61804;PMS7003;47725;47.912;7.356;2024-01-10T11:36:11;77.35;57.77;
61804;PMS7003;47725;47.912;7.356;2024-01-10T11:40:04;71.44;54.80;
61804;PMS7003;47725;47.912;7.356;2024-01-10T11:48:04;66.54;51.87;
61804;PMS7003;47725;47.912;7.356;2024-01-10T11:52:04;66.54;51.87;
61804;PMS7003;47725;47.912;7.356;2024-01-10T11:56:09;66.54;51.87;
61804;PMS7003;47725;47.912;7.356;2024-01-10T12:00:04;63.65;47.99;
61804;PMS7003;47725;47.912;7.356;2024-01-10T12:04:04;63.65;47.99;
61804;PMS7003;47725;47.912;7.356;2024-01-10T12:08:07;52.95;43.14;
61804;PMS7003;47725;47.912;7.356;2024-01-10T12:12:04;52.95;43.14;
61804;PMS7003;47725;47.912;7.356;2024-01-10T12:16:04;52.95;43.14;
61804;PMS7003;47725;47.912;7.356;2024-01-10T12:20:04;68.75;53.03;
61804;PMS7003;47725;47.912;7.356;2024-01-10T12:24:04;68.75;53.03;
61804;PMS7003;47725;47.912;7.356;2024-01-10T12:28:04;74.54;54.92;
61804;PMS7003;47725;47.912;7.356;2024-01-10T12:32:04;74.54;54.92;
61804;PMS7003;47725;47.912;7.356;2024-01-10T12:36:09;74.54;54.92;
61804;PMS7003;47725;47.912;7.356;2024-01-10T12:40:04;69.69;52.02;
61804;PMS7003;47725;47.912;7.356;2024-01-10T12:44:04;69.69;52.02;
61804;PMS7003;47725;47.912;7.356;2024-01-10T12:48:04;62.72;49.00;
61804;PMS7003;47725;47.912;7.356;2024-01-10T12:52:03;62.72;49.00;
61804;PMS7003;47725;47.912;7.356;2024-01-10T12:56:04;62.72;49.00;
61804;PMS7003;47725;47.912;7.356;2024-01-10T13:00:04;59.83;45.12;
61804;PMS7003;47725;47.912;7.356;2024-01-10T13:04:04;59.83;45.12;
61804;PMS7003;47725;47.912;7.356;2024-01-10T13:08:03;59.90;48.12;
61804;PMS7003;47725;47.912;7.356;2024-01-10T13:12:03;59.90;48.12;
61804;PMS7003;47725;47.912;7.356;2024-01-10T13:16:04;59.90;48.12;
61804;PMS7003;47725;47.912;7.356;2024-01-10T13:20:04;68.77;50.11;
61804;PMS7003;47725;47.912;7.356;2024-01-10T13:24:04;68.77;50.11;
61804;PMS7003;47725;47.912;7.356;2024-01-10T13:28:06;52.15;44.27;
61804;PMS7003;47725;47.912;7.356;2024-01-10T13:32:04;52.15;44.27;
61804;PMS7003;47725;47.912;7.356;2024-01-10T13:36:04;52.15;44.27;
61804;PMS7003;47725;47.912;7.356;2024-01-10T13:40:04;48.14;41.27;
61804;PMS7003;47725;47.912;7.356;2024-01-10T13:44:03;48.14;41.27;
61804;PMS7003;47725;47.912;7.356;2024-01-10T13:48:03;62.89;46.19;
61804;PMS7003;47725;47.912;7.356;2024-01-10T13:52:04;62.89;46.19;
61804;PMS7003;47725;47.912;7.356;2024-01-10T13:56:03;62.89;46.19;
61804;PMS7003;47725;47.912;7.356;2024-01-10T14:00:04;61.91;46.19;
61804;PMS7003;47725;47.912;7.356;2024-01-10T14:04:04;61.91;46.19;
61804;PMS7003;47725;47.912;7.356;2024-01-10T14:08:03;63.84;50.09;
61804;PMS7003;47725;47.912;7.356;2024-01-10T14:12:03;63.84;50.09;
61804;PMS7003;47725;47.912;7.356;2024-01-10T14:16:04;63.84;50.09;
61804;PMS7003;47725;47.912;7.356;2024-01-10T14:20:04;69.73;54.02;
61804;PMS7003;47725;47.912;7.356;2024-01-10T14:24:04;69.73;54.02;
61804;PMS7003;47725;47.912;7.356;2024-01-10T14:28:03;71.69;55.00;
61804;PMS7003;47725;47.912;7.356;2024-01-10T14:32:03;71.69;55.00;
61804;PMS7003;47725;47.912;7.356;2024-01-10T14:36:03;71.69;55.00;
61804;PMS7003;47725;47.912;7.356;2024-01-10T14:40:03;58.90;48.10;
61804;PMS7003;47725;47.912;7.356;2024-01-10T14:44:03;58.90;48.10;
61804;PMS7003;47725;47.912;7.356;2024-01-10T14:48:03;65.80;53.03;
61804;PMS7003;47725;47.912;7.356;2024-01-10T14:52:03;65.80;53.03;
61804;PMS7003;47725;47.912;7.356;2024-01-10T14:56:03;65.80;53.03;
61804;PMS7003;47725;47.912;7.356;2024-01-10T15:00:04;58.91;48.11;
61804;PMS7003;47725;47.912;7.356;2024-01-10T15:04:03;58.91;48.11;
61804;PMS7003;47725;47.912;7.356;2024-01-10T15:08:04;55.93;46.11;
61804;PMS7003;47725;47.912;7.356;2024-01-10T15:12:04;55.93;46.11;
61804;PMS7003;47725;47.912;7.356;2024-01-10T15:16:03;55.93;46.11;
61804;PMS7003;47725;47.912;7.356;2024-01-10T15:20:03;68.69;52.01;
61804;PMS7003;47725;47.912;7.356;2024-01-10T15:24:05;68.69;52.01;
61804;PMS7003;47725;47.912;7.356;2024-01-10T15:28:04;64.74;47.08;
61804;PMS7003;47725;47.912;7.356;2024-01-10T15:32:03;64.74;47.08;
61804;PMS7003;47725;47.912;7.356;2024-01-10T15:36:04;64.74;47.08;
61804;PMS7003;47725;47.912;7.356;2024-01-10T15:40:07;60.84;52.00;
61804;PMS7003;47725;47.912;7.356;2024-01-10T15:44:04;60.84;52.00;
61804;PMS7003;47725;47.912;7.356;2024-01-10T15:48:03;69.70;52.03;
61804;PMS7003;47725;47.912;7.356;2024-01-10T15:52:03;69.70;52.03;
61804;PMS7003;47725;47.912;7.356;2024-01-10T15:56:04;69.70;52.03;
61804;PMS7003;47725;47.912;7.356;2024-01-10T16:00:04;72.67;55.97;
61804;PMS7003;47725;47.912;7.356;2024-01-10T16:04:03;72.67;55.97;
61804;PMS7003;47725;47.912;7.356;2024-01-10T16:08:04;78.52;58.89;
61804;PMS7003;47725;47.912;7.356;2024-01-10T16:12:04;78.52;58.89;
61804;PMS7003;47725;47.912;7.356;2024-01-10T16:16:03;78.52;58.89;
61804;PMS7003;47725;47.912;7.356;2024-01-10T16:20:03;67.64;51.96;
61804;PMS7003;47725;47.912;7.356;2024-01-10T16:24:03;67.64;51.96;
61804;PMS7003;47725;47.912;7.356;2024-01-10T16:28:03;72.54;55.88;
61804;PMS7003;47725;47.912;7.356;2024-01-10T16:32:03;72.54;55.88;
61804;PMS7003;47725;47.912;7.356;2024-01-10T16:36:03;72.54;55.88;
61804;PMS7003;47725;47.912;7.356;2024-01-10T16:40:03;66.60;50.93;
61804;PMS7003;47725;47.912;7.356;2024-01-10T16:44:03;66.60;50.93;
61804;PMS7003;47725;47.912;7.356;2024-01-10T16:48:03;69.51;54.82;
61804;PMS7003;47725;47.912;7.356;2024-01-10T16:52:03;69.51;54.82;
61804;PMS7003;47725;47.912;7.356;2024-01-10T16:56:03;69.51;54.82;
61804;PMS7003;47725;47.912;7.356;2024-01-10T17:00:04;76.39;54.84;
61804;PMS7003;47725;47.912;7.356;2024-01-10T17:04:03;76.39;54.84;
61804;PMS7003;47725;47.912;7.356;2024-01-10T17:08:03;71.49;56.80;
61804;PMS7003;47725;47.912;7.356;2024-01-10T17:12:03;71.49;56.80;
61804;PMS7003;47725;47.912;7.356;2024-01-10T17:16:03;71.49;56.80;
61804;PMS7003;47725;47.912;7.356;2024-01-10T17:20:03;73.44;57.77;
61804;PMS7003;47725;47.912;7.356;2024-01-10T17:24:03;73.44;57.77;
61804;PMS7003;47725;47.912;7.356;2024-01-10T17:28:03;79.32;58.76;
61804;PMS7003;47725;47.912;7.356;2024-01-10T17:32:03;79.32;58.76;
61804;PMS7003;47725;47.912;7.356;2024-01-10T17:36:03;79.32;58.76;
61804;PMS7003;47725;47.912;7.356;2024-01-10T17:40:03;77.40;59.77;
61804;PMS7003;47725;47.912;7.356;2024-01-10T17:44:03;77.40;59.77;
61804;PMS7003;47725;47.912;7.356;2024-01-10T17:48:03;69.59;52.93;
61804;PMS7003;47725;47.912;7.356;2024-01-10T17:52:03;69.59;52.93;
61804;PMS7003;47725;47.912;7.356;2024-01-10T17:56:03;69.59;52.93;
61804;PMS7003;47725;47.912;7.356;2024-01-10T18:00:03;65.70;54.91;
61804;PMS7003;47725;47.912;7.356;2024-01-10T18:04:03;65.70;54.91;
61804;PMS7003;47725;47.912;7.356;2024-01-10T18:08:03;73.51;55.86;
61804;PMS7003;47725;47.912;7.356;2024-01-10T18:12:03;73.51;55.86;
61804;PMS7003;47725;47.912;7.356;2024-01-10T18:16:03;73.51;55.86;
61804;PMS7003;47725;47.912;7.356;2024-01-10T18:20:03;75.51;56.88;
61804;PMS7003;47725;47.912;7.356;2024-01-10T18:24:03;75.51;56.88;
61804;PMS7003;47725;47.912;7.356;2024-01-10T18:28:03;84.32;60.79;
61804;PMS7003;47725;47.912;7.356;2024-01-10T18:32:03;84.32;60.79;
61804;PMS7003;47725;47.912;7.356;2024-01-10T18:36:03;84.32;60.79;
61804;PMS7003;47725;47.912;7.356;2024-01-10T18:40:03;82.37;62.76;
61804;PMS7003;47725;47.912;7.356;2024-01-10T18:44:03;82.37;62.76;
61804;PMS7003;47725;47.912;7.356;2024-01-10T18:48:03;86.22;66.62;
61804;PMS7003;47725;47.912;7.356;2024-01-10T18:52:03;86.22;66.62;
61804;PMS7003;47725;47.912;7.356;2024-01-10T18:56:03;86.22;66.62;
61804;PMS7003;47725;47.912;7.356;2024-01-10T19:00:04;71.57;54.91;
61804;PMS7003;47725;47.912;7.356;2024-01-10T19:04:03;71.57;54.91;
61804;PMS7003;47725;47.912;7.356;2024-01-10T19:08:03;82.40;59.84;
61804;PMS7003;47725;47.912;7.356;2024-01-10T19:12:03;82.40;59.84;
61804;PMS7003;47725;47.912;7.356;2024-01-10T19:16:03;82.40;59.84;
61804;PMS7003;47725;47.912;7.356;2024-01-10T19:20:04;74.53;59.82;
61804;PMS7003;47725;47.912;7.356;2024-01-10T19:24:03;74.53;59.82;
61804;PMS7003;47725;47.912;7.356;2024-01-10T19:28:03;85.23;61.72;
61804;PMS7003;47725;47.912;7.356;2024-01-10T19:32:03;85.23;61.72;
61804;PMS7003;47725;47.912;7.356;2024-01-10T19:36:03;85.23;61.72;
61804;PMS7003;47725;47.912;7.356;2024-01-10T19:40:03;98.97;85.25;
61804;PMS7003;47725;47.912;7.356;2024-01-10T19:44:03;98.97;85.25;
61804;PMS7003;47725;47.912;7.356;2024-01-10T19:48:03;79.31;61.68;
61804;PMS7003;47725;47.912;7.356;2024-01-10T19:52:03;79.31;61.68;
61804;PMS7003;47725;47.912;7.356;2024-01-10T19:56:03;79.31;61.68;
61804;PMS7003;47725;47.912;7.356;2024-01-10T20:00:03;83.27;61.72;
61804;PMS7003;47725;47.912;7.356;2024-01-10T20:04:03;83.27;61.72;
61804;PMS7003;47725;47.912;7.356;2024-01-10T20:08:03;74.39;57.75;
61804;PMS7003;47725;47.912;7.356;2024-01-10T20:12:03;74.39;57.75;
61804;PMS7003;47725;47.912;7.356;2024-01-10T20:16:03;74.39;57.75;
61804;PMS7003;47725;47.912;7.356;2024-01-10T20:20:03;75.32;55.76;
61804;PMS7003;47725;47.912;7.356;2024-01-10T20:24:03;75.32;55.76;
61804;PMS7003;47725;47.912;7.356;2024-01-10T20:28:03;62.49;51.75;
61804;PMS7003;47725;47.912;7.356;2024-01-10T20:32:03;62.49;51.75;
61804;PMS7003;47725;47.912;7.356;2024-01-10T20:36:03;62.49;51.75;
61804;PMS7003;47725;47.912;7.356;2024-01-10T20:40:03;68.40;50.81;
61804;PMS7003;47725;47.912;7.356;2024-01-10T20:44:03;68.40;50.81;
61804;PMS7003;47725;47.912;7.356;2024-01-10T20:48:03;74.31;61.60;
61804;PMS7003;47725;47.912;7.356;2024-01-10T20:52:03;74.31;61.60;
61804;PMS7003;47725;47.912;7.356;2024-01-10T20:56:03;74.31;61.60;
61804;PMS7003;47725;47.912;7.356;2024-01-10T21:00:03;83.22;60.70;
61804;PMS7003;47725;47.912;7.356;2024-01-10T21:04:03;83.22;60.70;
61804;PMS7003;47725;47.912;7.356;2024-01-10T21:08:03;91.15;68.61;
61804;PMS7003;47725;47.912;7.356;2024-01-10T21:12:06;91.15;68.61;
61804;PMS7003;47725;47.912;7.356;2024-01-10T21:16:03;91.15;68.61;
61804;PMS7003;47725;47.912;7.356;2024-01-10T21:20:03;85.25;64.67;
61804;PMS7003;47725;47.912;7.356;2024-01-10T21:24:03;85.25;64.67;
61804;PMS7003;47725;47.912;7.356;2024-01-10T21:28:06;91.99;71.44;
61804;PMS7003;47725;47.912;7.356;2024-01-10T21:32:03;91.99;71.44;
61804;PMS7003;47725;47.912;7.356;2024-01-10T21:36:03;91.99;71.44;
61804;PMS7003;47725;47.912;7.356;2024-01-10T21:40:03;81.14;62.57;
61804;PMS7003;47725;47.912;7.356;2024-01-10T21:44:03;81.14;62.57;
61804;PMS7003;47725;47.912;7.356;2024-01-10T21:48:03;91.02;69.49;
61804;PMS7003;47725;47.912;7.356;2024-01-10T21:52:03;91.02;69.49;
61804;PMS7003;47725;47.912;7.356;2024-01-10T21:56:03;91.02;69.49;
61804;PMS7003;47725;47.912;7.356;2024-01-10T22:00:03;95.05;71.54;
61804;PMS7003;47725;47.912;7.356;2024-01-10T22:04:03;95.05;71.54;
61804;PMS7003;47725;47.912;7.356;2024-01-10T22:08:03;81.22;62.63;
61804;PMS7003;47725;47.912;7.356;2024-01-10T22:12:03;81.22;62.63;
61804;PMS7003;47725;47.912;7.356;2024-01-10T22:16:03;81.22;62.63;
61804;PMS7003;47725;47.912;7.356;2024-01-10T22:20:03;90.97;67.50;
61804;PMS7003;47725;47.912;7.356;2024-01-10T22:24:03;90.97;67.50;
61804;PMS7003;47725;47.912;7.356;2024-01-10T22:28:03;77.32;62.64;
61804;PMS7003;47725;47.912;7.356;2024-01-10T22:32:03;77.32;62.64;
61804;PMS7003;47725;47.912;7.356;2024-01-10T22:36:03;77.32;62.64;
61804;PMS7003;47725;47.912;7.356;2024-01-10T22:40:03;71.40;53.79;
61804;PMS7003;47725;47.912;7.356;2024-01-10T22:44:03;71.40;53.79;
61804;PMS7003;47725;47.912;7.356;2024-01-10T22:48:03;60.74;48.00;
61804;PMS7003;47725;47.912;7.356;2024-01-10T22:52:03;60.74;48.00;
61804;PMS7003;47725;47.912;7.356;2024-01-10T22:56:03;60.74;48.00;
61804;PMS7003;47725;47.912;7.356;2024-01-10T23:00:03;71.40;57.71;
61804;PMS7003;47725;47.912;7.356;2024-01-10T23:04:03;71.40;57.71;
61804;PMS7003;47725;47.912;7.356;2024-01-10T23:08:03;73.31;56.69;
61804;PMS7003;47725;47.912;7.356;2024-01-10T23:12:03;73.31;56.69;
61804;PMS7003;47725;47.912;7.356;2024-01-10T23:16:03;73.31;56.69;
61804;PMS7003;47725;47.912;7.356;2024-01-10T23:20:03;102.56;79.12;
61804;PMS7003;47725;47.912;7.356;2024-01-10T23:24:03;102.56;79.12;
61804;PMS7003;47725;47.912;7.356;2024-01-10T23:28:03;93.86;72.35;
61804;PMS7003;47725;47.912;7.356;2024-01-10T23:32:03;93.86;72.35;
61804;PMS7003;47725;47.912;7.356;2024-01-10T23:36:03;93.86;72.35;
61804;PMS7003;47725;47.912;7.356;2024-01-10T23:40:03;77.21;61.58;
61804;PMS7003;47725;47.912;7.356;2024-01-10T23:44:03;77.21;61.58;
61804;PMS7003;47725;47.912;7.356;2024-01-10T23:48:03;77.22;57.67;
61804;PMS7003;47725;47.912;7.356;2024-01-10T23:52:03;77.22;57.67;
61804;PMS7003;47725;47.912;7.356;2024-01-10T23:56:04;77.22;57.67;
